createdAt,value
2023-03-27T00:01:25.951Z,99992.06
2023-03-27T00:03:53.436Z,99993.31
2023-03-27T00:06:20.789Z,99990.44
2023-03-27T00:08:51.382Z,99995.78
2023-03-27T00:11:21.735Z,100004.22
2023-03-27T00:13:51.305Z,100007.78
2023-03-27T00:16:20.025Z,100018.94
2023-03-27T00:18:46.785Z,100012.81
2023-03-27T00:21:13.463Z,100015.84
2023-03-27T00:23:40.511Z,100025.94
2023-03-27T00:26:07.215Z,100021.50
2023-03-27T00:28:34.245Z,100024.66
2023-03-27T00:31:01.038Z,100023.75
2023-03-27T00:33:27.674Z,100025.53
2023-03-27T00:35:54.446Z,100036.75
2023-03-27T00:38:21.486Z,100040.16
2023-03-27T00:40:49.234Z,100041.25
2023-03-27T00:43:21.018Z,100045.59
2023-03-27T00:45:48.123Z,100051.66
2023-03-27T00:48:15.130Z,100057.59
2023-03-27T00:50:43.436Z,100061.19
2023-03-27T00:53:13.135Z,100064.22
2023-03-27T00:55:42.377Z,100064.19
2023-03-27T00:58:21.927Z,100066.47
2023-03-27T01:00:51.596Z,100064.44
2023-03-27T01:03:19.108Z,100070.09
2023-03-27T01:05:46.267Z,100075.88
2023-03-27T01:08:14.344Z,100076.59
2023-03-27T01:10:44.286Z,100085.88
2023-03-27T01:13:20.880Z,100086.47
2023-03-27T01:15:58.579Z,100090.13
2023-03-27T01:18:36.363Z,100090.13
2023-03-27T01:21:36.098Z,100082.78
2023-03-27T01:24:08.465Z,100093.88
2023-03-27T01:27:01.941Z,100091.97
2023-03-27T01:29:56.540Z,100099.69
2023-03-27T01:32:44.866Z,100104.16
2023-03-27T01:35:33.476Z,100121.00
2023-03-27T01:38:20.647Z,100120.16
2023-03-27T01:41:12.031Z,100123.28
2023-03-27T01:43:56.660Z,100125.63
2023-03-27T01:46:26.960Z,100131.72
2023-03-27T01:49:01.390Z,100128.72
2023-03-27T01:51:36.859Z,100134.53
2023-03-27T01:54:09.694Z,100138.84
2023-03-27T01:56:51.722Z,100139.66
2023-03-27T01:59:21.658Z,100148.47
2023-03-27T02:01:54.236Z,100140.88
2023-03-27T02:04:26.550Z,100145.59
2023-03-27T02:07:02.081Z,100145.19
2023-03-27T02:09:35.533Z,100142.94
2023-03-27T02:12:19.460Z,100137.66
2023-03-27T02:14:51.508Z,100158.44
2023-03-27T02:17:20.459Z,100160.69
2023-03-27T02:19:51.578Z,100176.91
2023-03-27T02:22:18.589Z,100173.72
2023-03-27T02:24:49.011Z,100166.19
2023-03-27T02:27:42.591Z,100178.13
2023-03-27T02:30:16.309Z,100180.47
2023-03-27T02:32:49.147Z,100183.19
2023-03-27T02:35:23.427Z,100196.38
2023-03-27T02:38:25.435Z,100194.84
2023-03-27T02:41:09.404Z,100209.91
2023-03-27T02:44:06.065Z,100210.09
2023-03-27T02:47:07.525Z,100206.53
2023-03-27T02:49:38.735Z,100221.69
2023-03-27T02:52:12.458Z,100222.88
2023-03-27T02:54:43.541Z,100228.81
2023-03-27T02:57:11.678Z,100241.22
2023-03-27T03:00:00.648Z,100249.03
2023-03-27T03:02:33.900Z,100254.88
2023-03-27T03:05:12.818Z,100255.16
2023-03-27T03:07:40.177Z,100256.56
2023-03-27T03:10:09.679Z,100262.84
2023-03-27T03:12:36.471Z,100260.56
2023-03-27T03:15:03.038Z,100262.28
2023-03-27T03:17:30.805Z,100265.13
2023-03-27T03:19:57.383Z,100271.53
2023-03-27T03:22:25.514Z,100277.56
2023-03-27T03:24:52.890Z,100276.78
2023-03-27T03:27:24.098Z,100284.44
2023-03-27T03:29:59.294Z,100283.91
2023-03-27T03:32:27.600Z,100295.16
2023-03-27T03:34:54.318Z,100307.78
2023-03-27T03:37:20.964Z,100305.28
2023-03-27T03:39:47.467Z,100298.28
2023-03-27T03:42:22.629Z,100308.38
2023-03-27T03:44:51.598Z,100313.63
2023-03-27T03:47:20.367Z,100316.75
2023-03-27T03:49:47.029Z,100326.69
2023-03-27T03:52:13.990Z,100327.56
2023-03-27T03:54:40.465Z,100328.97
2023-03-27T03:57:08.231Z,100335.34
2023-03-27T03:59:34.959Z,100340.72
2023-03-27T04:02:30.035Z,100342.28
2023-03-27T04:05:10.560Z,100345.94
2023-03-27T04:07:40.065Z,100335.84
2023-03-27T04:10:18.969Z,100338.09
2023-03-27T04:12:49.412Z,100340.28
2023-03-27T04:15:23.784Z,100348.38
2023-03-27T04:18:09.097Z,100356.16
2023-03-27T04:20:37.502Z,100364.41
2023-03-27T04:23:08.166Z,100361.06
2023-03-27T04:25:38.154Z,100363.56
2023-03-27T04:28:05.330Z,100363.69
2023-03-27T04:30:38.820Z,100369.97
2023-03-27T04:33:46.522Z,100380.22
2023-03-27T04:36:45.171Z,100378.56
2023-03-27T04:39:16.416Z,100381.94
2023-03-27T04:41:49.207Z,100391.31
2023-03-27T04:44:19.156Z,100382.94
2023-03-27T04:46:50.095Z,100381.56
2023-03-27T04:49:20.208Z,100389.09
2023-03-27T04:52:09.799Z,100393.97
2023-03-27T04:54:36.500Z,100408.22
2023-03-27T04:57:03.721Z,100407.47
2023-03-27T04:59:31.913Z,100407.22
2023-03-27T05:02:31.282Z,100418.25
2023-03-27T05:05:03.282Z,100429.75
2023-03-27T05:07:32.922Z,100431.34
2023-03-27T05:10:02.078Z,100438.72
2023-03-27T05:12:29.334Z,100434.59
2023-03-27T05:15:00.587Z,100438.75
2023-03-27T05:17:40.775Z,100442.78
2023-03-27T05:20:11.918Z,100440.44
2023-03-27T05:22:38.946Z,100441.56
2023-03-27T05:25:17.080Z,100448.53
2023-03-27T05:27:47.838Z,100446.03
2023-03-27T05:30:17.676Z,100447.72
2023-03-27T05:32:52.017Z,100455.28
2023-03-27T05:35:26.207Z,100457.63
2023-03-27T05:37:55.047Z,100466.41
2023-03-27T05:40:36.062Z,100468.66
2023-03-27T05:43:03.578Z,100469.97
2023-03-27T05:45:32.471Z,100476.06
2023-03-27T05:48:01.692Z,100480.78
2023-03-27T05:50:33.202Z,100491.34
2023-03-27T05:53:01.587Z,100500.53
2023-03-27T05:55:34.843Z,100498.38
2023-03-27T05:58:01.833Z,100497.22
2023-03-27T06:00:31.959Z,100509.63
2023-03-27T06:03:01.276Z,100506.63
2023-03-27T06:05:48.915Z,100525.00
2023-03-27T06:08:15.685Z,100525.16
2023-03-27T06:10:43.758Z,100533.47
2023-03-27T06:13:20.018Z,100529.16
2023-03-27T06:16:00.386Z,100537.91
2023-03-27T06:18:58.955Z,100539.28
2023-03-27T06:21:26.068Z,100542.53
2023-03-27T06:23:58.147Z,100551.38
2023-03-27T06:26:28.320Z,100545.00
2023-03-27T06:28:56.281Z,100547.91
2023-03-27T06:31:23.293Z,100551.13
2023-03-27T06:34:01.284Z,100559.63
2023-03-27T06:37:00.081Z,100552.31
2023-03-27T06:39:28.492Z,100557.94
2023-03-27T06:41:56.197Z,100560.22
2023-03-27T06:44:44.355Z,100570.44
2023-03-27T06:47:36.393Z,100572.47
2023-03-27T06:50:35.285Z,100583.84
2023-03-27T06:53:03.076Z,100582.59
2023-03-27T06:55:43.838Z,100589.50
2023-03-27T06:58:14.831Z,100597.81
2023-03-27T07:00:41.511Z,100593.81
2023-03-27T07:03:18.394Z,100602.41
2023-03-27T07:05:58.329Z,100603.75
2023-03-27T07:08:27.970Z,100608.25
2023-03-27T07:11:10.961Z,100607.25
2023-03-27T07:13:43.995Z,100605.72
2023-03-27T07:16:19.950Z,100613.81
2023-03-27T07:18:46.598Z,100611.88
2023-03-27T07:21:15.241Z,100606.41
2023-03-27T07:23:41.825Z,100617.63
2023-03-27T07:26:10.608Z,100611.00
2023-03-27T07:29:00.965Z,100610.22
2023-03-27T07:31:41.869Z,100616.25
2023-03-27T07:34:15.869Z,100624.56
2023-03-27T07:37:17.950Z,100625.41
2023-03-27T07:40:07.120Z,100626.16
2023-03-27T07:42:34.701Z,100627.25
2023-03-27T07:45:04.858Z,100629.31
2023-03-27T07:47:32.171Z,100628.97
2023-03-27T07:49:59.190Z,100625.59
2023-03-27T07:52:25.790Z,100627.91
2023-03-27T07:54:56.997Z,100625.50
2023-03-27T07:57:29.588Z,100629.75
2023-03-27T08:00:02.894Z,100637.38
2023-03-27T08:02:43.142Z,100631.41
2023-03-27T08:05:11.252Z,100637.91
2023-03-27T08:07:40.709Z,100626.22
2023-03-27T08:10:08.102Z,100627.31
2023-03-27T08:12:45.882Z,100629.97
2023-03-27T08:15:12.498Z,100633.31
2023-03-27T08:17:39.169Z,100638.75
2023-03-27T08:20:09.473Z,100638.78
2023-03-27T08:22:45.561Z,100642.69
2023-03-27T08:25:38.064Z,100644.53
2023-03-27T08:28:08.142Z,100650.19
2023-03-27T08:30:35.449Z,100647.84
2023-03-27T08:33:02.706Z,100658.38
2023-03-27T08:35:29.697Z,100655.50
2023-03-27T08:37:56.338Z,100666.81
2023-03-27T08:40:37.790Z,100661.41
2023-03-27T08:43:33.647Z,100666.53
2023-03-27T08:46:06.423Z,100666.78
2023-03-27T08:48:42.279Z,100672.91
2023-03-27T08:51:12.260Z,100666.38
2023-03-27T08:53:46.101Z,100673.50
2023-03-27T08:56:17.387Z,100677.31
2023-03-27T08:58:45.999Z,100687.56
2023-03-27T09:01:36.634Z,100680.16
2023-03-27T09:04:25.018Z,100684.84
2023-03-27T09:07:01.959Z,100680.97
2023-03-27T09:10:09.163Z,100699.25
2023-03-27T09:12:58.891Z,100696.03
2023-03-27T09:15:42.481Z,100695.44
2023-03-27T09:18:18.434Z,100703.50
2023-03-27T09:20:52.683Z,100702.50
2023-03-27T09:23:27.988Z,100707.75
2023-03-27T09:26:21.073Z,100694.38
2023-03-27T09:29:22.213Z,100694.59
2023-03-27T09:31:57.691Z,100711.34
2023-03-27T09:34:28.339Z,100710.53
2023-03-27T09:36:55.967Z,100703.06
2023-03-27T09:39:27.549Z,100709.34
2023-03-27T09:42:16.721Z,100712.94
2023-03-27T09:44:50.434Z,100713.69
2023-03-27T09:47:34.638Z,100722.56
2023-03-27T09:50:34.193Z,100711.41
2023-03-27T09:53:14.338Z,100716.53
2023-03-27T09:56:02.876Z,100720.84
2023-03-27T09:58:43.892Z,100721.59
2023-03-27T10:01:16.633Z,100719.19
2023-03-27T10:03:51.379Z,100722.72
2023-03-27T10:06:38.637Z,100719.47
2023-03-27T10:09:34.223Z,100733.44
2023-03-27T10:12:06.087Z,100725.53
2023-03-27T10:14:36.658Z,100716.75
2023-03-27T10:17:05.040Z,100718.44
2023-03-27T10:19:38.654Z,100718.56
2023-03-27T10:22:27.939Z,100723.81
2023-03-27T10:24:58.605Z,100728.75
2023-03-27T10:27:44.492Z,100725.41
2023-03-27T10:30:36.526Z,100726.19
2023-03-27T10:33:36.696Z,100727.06
2023-03-27T10:36:21.380Z,100733.88
2023-03-27T10:38:58.360Z,100732.84
2023-03-27T10:41:41.602Z,100735.41
2023-03-27T10:44:17.829Z,100748.69
2023-03-27T10:46:50.347Z,100745.47
2023-03-27T10:49:42.833Z,100736.03
2023-03-27T10:52:22.926Z,100745.03
2023-03-27T10:55:20.203Z,100752.00
2023-03-27T10:57:53.636Z,100741.75
2023-03-27T11:00:40.956Z,100749.16
2023-03-27T11:03:30.187Z,100750.25
2023-03-27T11:06:05.109Z,100748.63
2023-03-27T11:08:51.233Z,100748.81
2023-03-27T11:11:27.074Z,100749.66
2023-03-27T11:13:56.784Z,100752.41
2023-03-27T11:16:31.391Z,100744.28
2023-03-27T11:19:47.747Z,100747.00
2023-03-27T11:22:57.029Z,100752.88
2023-03-27T11:25:46.412Z,100753.25
2023-03-27T11:28:26.886Z,100770.63
2023-03-27T11:31:12.150Z,100763.41
2023-03-27T11:33:44.925Z,100777.50
2023-03-27T11:36:20.125Z,100773.59
2023-03-27T11:39:15.318Z,100776.91
2023-03-27T11:41:54.747Z,100782.34
2023-03-27T11:44:22.187Z,100778.66
2023-03-27T11:47:28.002Z,100780.84
2023-03-27T11:50:09.074Z,100782.22
2023-03-27T11:52:56.788Z,100782.84
2023-03-27T11:56:17.365Z,100775.13
2023-03-27T11:59:04.880Z,100768.03
2023-03-27T12:01:42.717Z,100767.03
2023-03-27T12:04:34.309Z,100768.22
2023-03-27T12:07:35.844Z,100764.91
2023-03-27T12:10:29.116Z,100768.38
2023-03-27T12:13:54.943Z,100762.09
2023-03-27T12:16:38.948Z,100764.22
2023-03-27T12:19:38.547Z,100766.94
2023-03-27T12:22:54.084Z,100769.59
2023-03-27T12:25:59.084Z,100769.94
2023-03-27T12:29:00.861Z,100775.19
2023-03-27T12:32:10.574Z,100766.09
2023-03-27T12:34:56.575Z,100767.28
2023-03-27T12:37:42.255Z,100775.69
2023-03-27T12:40:29.282Z,100785.34
2023-03-27T12:43:29.858Z,100787.38
2023-03-27T12:46:25.368Z,100797.16
2023-03-27T12:49:13.265Z,100783.16
2023-03-27T12:51:54.772Z,100791.91
2023-03-27T12:55:05.929Z,100783.25
2023-03-27T12:57:52.679Z,100786.06
2023-03-27T13:00:37.224Z,100787.22
2023-03-27T13:03:22.796Z,100796.25
2023-03-27T13:06:18.717Z,100804.25
2023-03-27T13:08:54.588Z,100813.38
2023-03-27T13:11:41.568Z,100799.19
2023-03-27T13:14:41.524Z,100804.94
2023-03-27T13:17:41.777Z,100810.59
2023-03-27T13:20:24.124Z,100807.56
2023-03-27T13:23:15.579Z,100807.09
2023-03-27T13:25:59.661Z,100814.44
2023-03-27T13:28:51.389Z,100820.00
2023-03-27T13:31:43.923Z,100820.06
2023-03-27T13:34:32.672Z,100821.66
2023-03-27T13:37:11.414Z,100801.47
2023-03-27T13:39:46.328Z,100808.16
2023-03-27T13:42:21.267Z,100801.03
2023-03-27T13:45:05.475Z,100802.34
2023-03-27T13:48:21.276Z,100799.53
2023-03-27T13:51:35.463Z,100818.91
2023-03-27T13:54:12.820Z,100828.66
2023-03-27T13:56:47.735Z,100829.06
2023-03-27T13:59:34.414Z,100841.88
2023-03-27T14:02:30.716Z,100862.03
2023-03-27T14:05:12.616Z,100869.53
2023-03-27T14:08:13.402Z,100861.19
2023-03-27T14:10:58.341Z,100864.59
2023-03-27T14:13:39.207Z,100854.28
2023-03-27T14:16:50.450Z,100849.22
2023-03-27T14:19:29.020Z,100842.31
2023-03-27T14:22:00.195Z,100833.69
2023-03-27T14:24:37.123Z,100832.59
2023-03-27T14:27:21.270Z,100833.97
2023-03-27T14:29:49.593Z,100840.31
2023-03-27T14:32:20.849Z,100842.13
2023-03-27T14:34:54.673Z,100842.69
2023-03-27T14:37:42.004Z,100851.38
2023-03-27T14:40:43.552Z,100846.91
2023-03-27T14:43:14.339Z,100848.31
2023-03-27T14:45:41.228Z,100846.84
2023-03-27T14:48:23.858Z,100847.41
2023-03-27T14:50:53.444Z,100842.25
2023-03-27T14:53:26.222Z,100836.28
2023-03-27T14:56:11.643Z,100849.34
2023-03-27T14:58:59.459Z,100852.25
2023-03-27T15:01:35.244Z,100866.38
2023-03-27T15:04:02.566Z,100863.53
2023-03-27T15:06:36.268Z,100867.47
2023-03-27T15:09:05.701Z,100863.81
2023-03-27T15:11:55.887Z,100860.69
2023-03-27T15:14:28.542Z,100865.25
2023-03-27T15:17:08.569Z,100865.66
2023-03-27T15:19:45.597Z,100863.50
2023-03-27T15:22:40.485Z,100859.31
2023-03-27T15:25:11.622Z,100864.00
2023-03-27T15:27:38.991Z,100863.91
2023-03-27T15:30:28.621Z,100863.00
2023-03-27T15:32:56.868Z,100864.72
2023-03-27T15:35:40.248Z,100865.59
2023-03-27T15:38:08.133Z,100862.22
2023-03-27T15:40:37.452Z,100866.09
2023-03-27T15:43:13.621Z,100861.72
2023-03-27T15:45:57.338Z,100862.13
2023-03-27T15:48:32.998Z,100870.91
2023-03-27T15:51:03.417Z,100870.84
2023-03-27T15:53:37.059Z,100877.75
2023-03-27T15:56:06.831Z,100878.91
2023-03-27T15:58:42.973Z,100869.22
2023-03-27T16:01:19.181Z,100871.00
2023-03-27T16:03:48.352Z,100870.38
2023-03-27T16:06:23.877Z,100872.44
2023-03-27T16:08:51.577Z,100876.06
2023-03-27T16:11:43.231Z,100876.78
2023-03-27T16:14:48.267Z,100881.78
2023-03-27T16:17:21.296Z,100888.66
2023-03-27T16:19:53.853Z,100906.59
2023-03-27T16:22:28.642Z,100913.41
2023-03-27T16:24:56.837Z,100923.50
2023-03-27T16:27:26.466Z,100916.00
2023-03-27T16:29:53.524Z,100917.16
2023-03-27T16:32:21.808Z,100909.50
2023-03-27T16:34:48.392Z,100904.47
2023-03-27T16:37:15.705Z,100905.44
2023-03-27T16:39:42.925Z,100898.53
2023-03-27T16:42:27.610Z,100904.66
2023-03-27T16:44:54.322Z,100901.94
2023-03-27T16:47:23.164Z,100907.84
2023-03-27T16:50:03.629Z,100909.16
2023-03-27T16:52:36.430Z,100921.59
2023-03-27T16:55:04.603Z,100915.94
2023-03-27T16:57:33.135Z,100923.28
2023-03-27T17:00:00.359Z,100922.31
2023-03-27T17:02:27.588Z,100927.63
2023-03-27T17:04:54.238Z,100929.56
2023-03-27T17:07:21.124Z,100942.31
2023-03-27T17:09:47.657Z,100943.19
2023-03-27T17:12:14.256Z,100948.06
2023-03-27T17:14:40.779Z,100947.22
2023-03-27T17:17:07.328Z,100956.22
2023-03-27T17:19:33.978Z,100954.41
2023-03-27T17:22:00.608Z,100954.59
2023-03-27T17:24:27.068Z,100961.34
2023-03-27T17:26:53.714Z,100961.03
2023-03-27T17:29:20.323Z,100970.38
2023-03-27T17:31:47.170Z,100971.75
2023-03-27T17:34:13.838Z,100974.78
2023-03-27T17:36:47.244Z,100970.94
2023-03-27T17:39:19.042Z,100983.25
2023-03-27T17:41:45.558Z,100987.78
2023-03-27T17:44:13.584Z,100981.59
2023-03-27T17:46:40.131Z,100990.03
2023-03-27T17:49:06.704Z,100995.69
2023-03-27T17:51:34.316Z,101000.19
2023-03-27T17:54:01.345Z,101004.16
2023-03-27T17:56:27.821Z,101003.72
2023-03-27T17:58:54.324Z,100995.34
2023-03-27T18:01:21.714Z,100999.09
2023-03-27T18:03:48.761Z,100997.50
2023-03-27T18:06:19.219Z,101000.91
2023-03-27T18:08:46.505Z,100998.97
2023-03-27T18:11:14.646Z,100997.50
2023-03-27T18:13:41.594Z,101001.53
2023-03-27T18:16:10.556Z,100993.88
2023-03-27T18:18:39.054Z,100996.69
2023-03-27T18:21:07.460Z,100989.56
2023-03-27T18:23:35.090Z,100995.56
2023-03-27T18:26:08.900Z,100997.03
2023-03-27T18:28:35.784Z,101008.22
2023-03-27T18:31:04.893Z,101004.97
2023-03-27T18:33:31.892Z,101026.25
2023-03-27T18:35:59.505Z,101032.22
2023-03-27T18:38:27.482Z,101030.44
2023-03-27T18:40:59.713Z,101034.06
2023-03-27T18:43:26.536Z,101036.06
2023-03-27T18:45:57.580Z,101029.19
2023-03-27T18:48:24.296Z,101025.44
2023-03-27T18:50:55.457Z,101025.16
2023-03-27T18:53:22.301Z,101025.16
2023-03-27T18:55:49.780Z,101026.97
2023-03-27T18:58:16.518Z,101027.97
2023-03-27T19:00:43.090Z,101020.41
2023-03-27T19:03:15.518Z,101024.16
2023-03-27T19:05:42.089Z,101020.53
2023-03-27T19:08:08.629Z,101020.53
2023-03-27T19:10:36.456Z,101021.78
2023-03-27T19:13:22.138Z,101019.59
2023-03-27T19:16:13.953Z,101019.69
2023-03-27T19:19:00.557Z,101019.78
2023-03-27T19:21:45.917Z,101017.94
2023-03-27T19:24:21.329Z,101017.28
2023-03-27T19:26:48.205Z,101013.22
2023-03-27T19:29:14.729Z,101013.38
2023-03-27T19:31:41.788Z,101008.34
2023-03-27T19:34:08.431Z,101003.03
2023-03-27T19:36:34.970Z,101001.97
2023-03-27T19:39:01.521Z,101001.19
2023-03-27T19:41:28.088Z,101004.44
2023-03-27T19:43:54.731Z,101009.97
2023-03-27T19:46:23.261Z,101005.94
2023-03-27T19:48:52.143Z,101007.25
2023-03-27T19:51:29.882Z,101000.03
2023-03-27T19:53:57.307Z,100999.22
2023-03-27T19:56:26.140Z,101002.84
2023-03-27T19:58:52.953Z,100996.66
2023-03-27T20:01:22.119Z,101000.16
2023-03-27T20:03:48.869Z,101001.13
2023-03-27T20:06:18.963Z,100987.81
2023-03-27T20:08:45.649Z,100993.31
2023-03-27T20:11:14.735Z,100997.69
2023-03-27T20:13:53.087Z,100995.38
2023-03-27T20:16:23.454Z,100988.25
2023-03-27T20:18:55.406Z,100987.97
2023-03-27T20:21:25.629Z,100992.06
2023-03-27T20:23:55.665Z,100979.56
2023-03-27T20:26:39.288Z,100980.34
2023-03-27T20:29:21.622Z,100985.88
2023-03-27T20:31:48.554Z,100980.69
2023-03-27T20:34:19.158Z,100986.69
2023-03-27T20:36:45.920Z,100984.16
2023-03-27T20:39:33.647Z,100986.53
2023-03-27T20:42:00.265Z,100996.97
2023-03-27T20:44:40.159Z,100985.09
2023-03-27T20:47:13.179Z,100985.34
2023-03-27T20:49:43.842Z,100986.16
2023-03-27T20:52:13.244Z,100974.56
2023-03-27T20:54:39.776Z,100974.41
2023-03-27T20:57:09.154Z,100969.16
2023-03-27T20:59:35.863Z,100973.22
2023-03-27T21:02:02.738Z,100978.91
2023-03-27T21:04:31.479Z,100977.31
2023-03-27T21:06:58.220Z,100976.16
2023-03-27T21:09:26.100Z,100990.13
2023-03-27T21:11:55.152Z,100982.97
2023-03-27T21:14:22.170Z,100984.69
2023-03-27T21:16:48.775Z,101000.81
2023-03-27T21:19:15.918Z,100988.53
2023-03-27T21:21:42.980Z,100989.09
2023-03-27T21:24:09.599Z,100990.25
2023-03-27T21:26:36.162Z,100986.22
2023-03-27T21:29:03.371Z,100984.72
2023-03-27T21:31:30.316Z,100982.78
2023-03-27T21:33:56.877Z,100987.72
2023-03-27T21:36:23.627Z,100982.91
2023-03-27T21:38:50.411Z,100985.59
2023-03-27T21:41:17.194Z,100989.78
2023-03-27T21:43:43.727Z,100982.56
2023-03-27T21:46:10.589Z,100982.38
2023-03-27T21:48:37.147Z,100977.94
2023-03-27T21:51:05.376Z,100975.22
2023-03-27T21:53:31.873Z,100965.06
2023-03-27T21:55:58.800Z,100972.84
2023-03-27T21:58:25.786Z,100967.69
2023-03-27T22:00:54.758Z,100968.22
2023-03-27T22:03:21.300Z,100970.41
2023-03-27T22:05:57.292Z,100962.13
2023-03-27T22:08:27.924Z,100975.19
2023-03-27T22:10:58.346Z,100970.31
2023-03-27T22:13:24.871Z,100976.34
2023-03-27T22:15:51.748Z,100981.81
2023-03-27T22:18:18.365Z,100974.06
2023-03-27T22:20:44.877Z,100982.84
2023-03-27T22:23:11.367Z,100989.03
2023-03-27T22:25:37.864Z,100980.88
2023-03-27T22:28:04.420Z,100987.22
2023-03-27T22:30:31.516Z,100986.09
2023-03-27T22:32:58.068Z,100988.38
2023-03-27T22:35:24.678Z,100995.50
2023-03-27T22:37:51.232Z,100987.34
2023-03-27T22:40:17.902Z,100993.13
2023-03-27T22:42:44.454Z,101005.38
2023-03-27T22:45:11.376Z,100998.22
2023-03-27T22:47:37.944Z,101000.84
2023-03-27T22:50:06.432Z,101004.47
2023-03-27T22:52:33.220Z,101004.13
2023-03-27T22:54:59.856Z,100999.41
2023-03-27T22:57:26.445Z,101005.50
2023-03-27T22:59:53.776Z,101008.88
2023-03-27T23:02:20.769Z,101013.28
2023-03-27T23:04:47.287Z,101011.09
2023-03-27T23:07:13.774Z,101006.31
2023-03-27T23:09:40.351Z,101001.81
2023-03-27T23:12:06.906Z,101011.47
2023-03-27T23:14:33.376Z,101011.59
2023-03-27T23:17:00.692Z,101020.41
2023-03-27T23:19:27.172Z,101017.75
2023-03-27T23:21:53.668Z,101019.31
2023-03-27T23:24:20.188Z,101029.63
2023-03-27T23:26:46.708Z,101034.97
2023-03-27T23:29:13.170Z,101044.25
2023-03-27T23:31:39.743Z,101050.16
2023-03-27T23:34:06.247Z,101044.91
2023-03-27T23:36:32.778Z,101051.28
2023-03-27T23:38:59.281Z,101053.75
2023-03-27T23:41:25.784Z,101060.19
2023-03-27T23:43:53.862Z,101064.31
2023-03-27T23:46:20.413Z,101060.94
2023-03-27T23:48:46.969Z,101066.16
2023-03-27T23:51:15.019Z,101069.13
2023-03-27T23:53:41.930Z,101080.88
2023-03-27T23:56:08.972Z,101076.78
2023-03-27T23:58:37.088Z,101075.34
